createdAt,value
2018-08-10T00:01:21.605Z,100056.83
2018-08-10T00:06:25.158Z,100063.64
2018-08-10T00:11:28.628Z,100084.26
2018-08-10T00:16:32.090Z,100090.59
2018-08-10T00:21:35.578Z,100083.59
2018-08-10T00:26:39.116Z,100085.01
2018-08-10T00:31:42.734Z,100092.06
2018-08-10T00:36:46.694Z,100106.16
2018-08-10T00:41:50.234Z,100101.83
2018-08-10T00:46:53.795Z,100101.05
2018-08-10T00:51:57.430Z,100118.13
2018-08-10T00:57:00.982Z,100141.95
2018-08-10T01:02:04.505Z,100151.43
2018-08-10T01:07:08.028Z,100147.91
2018-08-10T01:12:14.492Z,100153.80
2018-08-10T01:17:18.012Z,100155.95
2018-08-10T01:22:21.551Z,100171.97
2018-08-10T01:27:30.438Z,100192.66
2018-08-10T01:32:33.936Z,100202.97
2018-08-10T01:37:37.544Z,100203.20
2018-08-10T01:42:41.105Z,100187.50
2018-08-10T01:47:44.784Z,100192.66
2018-08-10T01:52:48.342Z,100186.98
2018-08-10T01:57:51.862Z,100204.59
2018-08-10T02:02:55.365Z,100201.06
2018-08-10T02:07:59.019Z,100203.23
2018-08-10T02:13:02.553Z,100206.49
2018-08-10T02:18:06.245Z,100213.27
2018-08-10T02:23:09.922Z,100213.53
2018-08-10T02:28:13.486Z,100215.94
2018-08-10T02:33:16.990Z,100225.71
2018-08-10T02:38:20.518Z,100228.41
2018-08-10T02:43:24.043Z,100228.94
2018-08-10T02:48:27.788Z,100226.78
2018-08-10T02:53:31.256Z,100234.60
2018-08-10T02:58:34.748Z,100239.22
2018-08-10T03:03:38.320Z,100240.00
2018-08-10T03:08:41.858Z,100249.11
2018-08-10T03:13:45.453Z,100259.63
2018-08-10T03:18:48.959Z,100265.81
2018-08-10T03:23:52.531Z,100266.59
2018-08-10T03:28:56.100Z,100268.11
2018-08-10T03:33:59.664Z,100269.53
2018-08-10T03:39:03.158Z,100274.13
2018-08-10T03:44:06.877Z,100282.92
2018-08-10T03:49:10.411Z,100294.39
2018-08-10T03:54:13.927Z,100305.74
2018-08-10T03:59:17.517Z,100313.58
2018-08-10T04:04:21.833Z,100315.75
2018-08-10T04:09:25.301Z,100325.48
2018-08-10T04:14:28.766Z,100334.09
2018-08-10T04:19:32.341Z,100355.44
2018-08-10T04:24:35.897Z,100366.30
2018-08-10T04:29:39.515Z,100375.71
2018-08-10T04:34:43.034Z,100392.97
2018-08-10T04:39:46.514Z,100420.37
2018-08-10T04:44:49.977Z,100434.65
2018-08-10T04:49:53.592Z,100443.84
2018-08-10T04:54:57.156Z,100458.65
2018-08-10T05:00:00.627Z,100450.88
2018-08-10T05:05:04.777Z,100451.69
2018-08-10T05:10:08.660Z,100451.43
2018-08-10T05:15:12.778Z,100466.14
2018-08-10T05:20:16.227Z,100482.59
2018-08-10T05:25:19.701Z,100490.84
2018-08-10T05:30:23.187Z,100505.39
2018-08-10T05:35:26.710Z,100537.98
2018-08-10T05:40:30.245Z,100533.14
2018-08-10T05:45:33.762Z,100540.42
2018-08-10T05:50:37.290Z,100558.59
2018-08-10T05:55:40.802Z,100563.19
2018-08-10T06:00:44.408Z,100571.84
2018-08-10T06:05:47.840Z,100555.81
2018-08-10T06:10:51.413Z,100564.25
2018-08-10T06:15:54.917Z,100574.91
2018-08-10T06:20:58.390Z,100583.36
2018-08-10T06:26:01.870Z,100586.58
2018-08-10T06:31:05.332Z,100599.98
2018-08-10T06:36:08.834Z,100604.62
2018-08-10T06:41:12.323Z,100611.42
2018-08-10T06:46:15.841Z,100627.45
2018-08-10T06:51:19.457Z,100624.98
2018-08-10T06:56:22.902Z,100628.35
2018-08-10T07:01:26.435Z,100637.36
2018-08-10T07:06:29.844Z,100646.98
2018-08-10T07:11:33.390Z,100656.63
2018-08-10T07:16:36.876Z,100674.64
2018-08-10T07:21:40.358Z,100679.81
2018-08-10T07:26:43.827Z,100692.95
2018-08-10T07:31:47.353Z,100706.16
2018-08-10T07:36:50.897Z,100713.48
2018-08-10T07:41:54.359Z,100719.53
2018-08-10T07:46:57.834Z,100715.89
2018-08-10T07:52:01.371Z,100713.95
2018-08-10T07:57:04.824Z,100720.52
2018-08-10T08:02:08.292Z,100730.23
2018-08-10T08:07:11.766Z,100745.48
2018-08-10T08:12:15.238Z,100738.98
2018-08-10T08:17:18.766Z,100746.02
2018-08-10T08:22:22.777Z,100742.11
2018-08-10T08:27:26.266Z,100753.30
2018-08-10T08:32:29.821Z,100759.52
2018-08-10T08:37:33.304Z,100764.00
2018-08-10T08:42:36.822Z,100766.31
2018-08-10T08:47:40.282Z,100776.52
2018-08-10T08:52:43.805Z,100771.88
2018-08-10T08:57:47.349Z,100767.55
2018-08-10T09:02:50.935Z,100784.23
2018-08-10T09:07:54.472Z,100797.66
2018-08-10T09:12:58.017Z,100787.66
2018-08-10T09:18:01.555Z,100797.37
2018-08-10T09:23:05.130Z,100784.23
2018-08-10T09:28:08.690Z,100786.94
2018-08-10T09:33:12.211Z,100785.34
2018-08-10T09:38:22.488Z,100792.35
2018-08-10T09:43:26.001Z,100790.92
2018-08-10T09:48:29.526Z,100792.84
2018-08-10T09:53:33.036Z,100794.05
2018-08-10T09:58:36.462Z,100809.03
2018-08-10T10:03:39.998Z,100796.86
2018-08-10T10:08:43.451Z,100789.91
2018-08-10T10:13:46.953Z,100800.38
2018-08-10T10:18:50.836Z,100788.98
2018-08-10T10:23:54.331Z,100792.12
2018-08-10T10:29:00.343Z,100788.95
2018-08-10T10:34:03.824Z,100789.68
2018-08-10T10:39:10.465Z,100786.37
2018-08-10T10:44:14.583Z,100793.73
2018-08-10T10:49:18.030Z,100798.73
2018-08-10T10:54:21.730Z,100791.59
2018-08-10T10:59:25.198Z,100793.98
2018-08-10T11:04:28.697Z,100793.37
2018-08-10T11:09:32.195Z,100797.44
2018-08-10T11:14:35.749Z,100816.75
2018-08-10T11:19:39.315Z,100812.61
2018-08-10T11:24:42.797Z,100807.17
2018-08-10T11:29:46.391Z,100809.50
2018-08-10T11:34:49.901Z,100811.72
2018-08-10T11:39:53.469Z,100825.94
2018-08-10T11:44:57.047Z,100813.74
2018-08-10T11:50:00.584Z,100818.27
2018-08-10T11:55:04.297Z,100819.67
2018-08-10T12:00:09.497Z,100812.86
2018-08-10T12:05:13.804Z,100808.48
2018-08-10T12:10:17.391Z,100809.44
2018-08-10T12:15:22.101Z,100806.55
2018-08-10T12:20:25.848Z,100804.56
2018-08-10T12:25:29.530Z,100811.22
2018-08-10T12:30:36.358Z,100807.45
2018-08-10T12:35:40.113Z,100797.13
2018-08-10T12:40:43.717Z,100806.91
2018-08-10T12:45:47.264Z,100808.07
2018-08-10T12:50:50.896Z,100795.80
2018-08-10T12:56:01.055Z,100795.60
2018-08-10T13:01:04.673Z,100792.81
2018-08-10T13:06:08.310Z,100793.11
2018-08-10T13:11:11.819Z,100791.16
2018-08-10T13:16:15.580Z,100781.50
2018-08-10T13:21:19.311Z,100777.27
2018-08-10T13:26:22.977Z,100782.62
2018-08-10T13:31:26.520Z,100776.36
2018-08-10T13:36:30.195Z,100785.91
2018-08-10T13:41:33.715Z,100797.45
2018-08-10T13:46:37.390Z,100785.82
2018-08-10T13:51:40.849Z,100783.02
2018-08-10T13:56:44.570Z,100775.55
2018-08-10T14:01:48.409Z,100793.02
2018-08-10T14:06:52.490Z,100782.05
2018-08-10T14:11:56.023Z,100779.15
2018-08-10T14:16:59.605Z,100773.02
2018-08-10T14:22:03.111Z,100766.66
2018-08-10T14:27:06.652Z,100772.16
2018-08-10T14:32:10.108Z,100762.39
2018-08-10T14:37:47.848Z,100758.08
2018-08-10T14:42:51.415Z,100745.03
2018-08-10T14:47:54.895Z,100753.06
2018-08-10T14:52:58.438Z,100756.75
2018-08-10T14:58:02.122Z,100741.48
2018-08-10T15:03:05.652Z,100748.28
2018-08-10T15:08:09.489Z,100748.93
2018-08-10T15:13:13.324Z,100741.39
2018-08-10T15:18:17.290Z,100747.53
2018-08-10T15:23:20.857Z,100736.56
2018-08-10T15:28:24.591Z,100738.89
2018-08-10T15:33:28.662Z,100742.61
2018-08-10T15:38:32.347Z,100737.78
2018-08-10T15:43:35.948Z,100729.81
2018-08-10T15:48:39.599Z,100732.17
2018-08-10T15:53:43.353Z,100719.08
2018-08-10T15:58:46.909Z,100724.80
2018-08-10T16:03:50.577Z,100712.81
2018-08-10T16:08:54.141Z,100718.86
2018-08-10T16:13:59.435Z,100719.92
2018-08-10T16:19:04.018Z,100723.75
2018-08-10T16:24:08.437Z,100719.72
2018-08-10T16:29:13.700Z,100711.89
2018-08-10T16:34:17.224Z,100717.12
2018-08-10T16:39:20.828Z,100707.89
2018-08-10T16:44:25.208Z,100707.89
2018-08-10T16:49:29.554Z,100709.13
2018-08-10T16:54:34.157Z,100702.58
2018-08-10T16:59:38.832Z,100701.37
2018-08-10T17:04:42.473Z,100696.62
2018-08-10T17:09:46.934Z,100700.31
2018-08-10T17:14:51.418Z,100700.50
2018-08-10T17:19:55.220Z,100700.65
2018-08-10T17:24:59.948Z,100707.22
2018-08-10T17:30:06.397Z,100700.80
2018-08-10T17:35:11.670Z,100698.69
2018-08-10T17:40:15.365Z,100701.05
2018-08-10T17:45:19.016Z,100708.60
2018-08-10T17:50:22.745Z,100702.71
2018-08-10T17:55:26.453Z,100711.55
2018-08-10T18:00:30.111Z,100721.06
2018-08-10T18:05:33.939Z,100725.67
2018-08-10T18:10:37.535Z,100730.38
2018-08-10T18:15:41.026Z,100736.13
2018-08-10T18:20:44.570Z,100738.86
2018-08-10T18:25:48.062Z,100742.94
2018-08-10T18:30:51.585Z,100747.56
2018-08-10T18:35:55.189Z,100747.27
2018-08-10T18:40:58.659Z,100746.70
2018-08-10T18:46:02.145Z,100750.47
2018-08-10T18:51:05.738Z,100760.76
2018-08-10T18:56:10.686Z,100751.73
2018-08-10T19:01:14.983Z,100756.79
2018-08-10T19:06:19.832Z,100762.19
2018-08-10T19:11:23.437Z,100770.58
2018-08-10T19:16:26.963Z,100762.41
2018-08-10T19:21:30.548Z,100763.15
2018-08-10T19:26:34.046Z,100761.91
2018-08-10T19:31:37.749Z,100761.61
2018-08-10T19:36:41.200Z,100764.19
2018-08-10T19:41:45.043Z,100775.22
2018-08-10T19:46:48.632Z,100778.38
2018-08-10T19:51:52.238Z,100776.95
2018-08-10T19:56:55.860Z,100785.56
2018-08-10T20:01:59.583Z,100782.52
2018-08-10T20:07:03.813Z,100781.98
2018-08-10T20:12:07.450Z,100782.52
2018-08-10T20:17:11.044Z,100782.20
2018-08-10T20:22:17.290Z,100776.11
2018-08-10T20:27:21.153Z,100775.11
2018-08-10T20:32:24.850Z,100776.02
2018-08-10T20:37:28.622Z,100770.42
2018-08-10T20:42:32.245Z,100782.11
2018-08-10T20:47:37.503Z,100772.25
2018-08-10T20:52:43.204Z,100785.03
2018-08-10T20:57:47.137Z,100779.33
2018-08-10T21:02:50.805Z,100776.50
2018-08-10T21:07:54.475Z,100769.27
2018-08-10T21:12:58.049Z,100768.13
2018-08-10T21:18:01.576Z,100765.92
2018-08-10T21:23:05.172Z,100772.42
2018-08-10T21:28:08.764Z,100770.05
2018-08-10T21:33:12.307Z,100767.39
2018-08-10T21:38:15.914Z,100762.73
2018-08-10T21:43:19.518Z,100764.02
2018-08-10T21:48:22.997Z,100761.63
2018-08-10T21:53:26.609Z,100769.83
2018-08-10T21:58:30.289Z,100771.75
2018-08-10T22:03:33.896Z,100776.97
2018-08-10T22:08:37.471Z,100774.14
2018-08-10T22:13:46.292Z,100779.15
2018-08-10T22:18:55.285Z,100777.80
2018-08-10T22:23:58.935Z,100789.37
2018-08-10T22:29:02.626Z,100789.73
2018-08-10T22:34:06.442Z,100787.20
2018-08-10T22:39:10.205Z,100783.84
2018-08-10T22:44:13.891Z,100784.95
2018-08-10T22:49:17.498Z,100783.48
2018-08-10T22:54:21.000Z,100777.99
2018-08-10T22:59:24.657Z,100776.64
2018-08-10T23:04:28.477Z,100775.48
2018-08-10T23:09:32.339Z,100769.45
2018-08-10T23:14:35.987Z,100771.69
2018-08-10T23:19:39.771Z,100763.13
2018-08-10T23:24:43.325Z,100759.33
2018-08-10T23:29:47.013Z,100754.34
2018-08-10T23:34:50.989Z,100755.55
2018-08-10T23:39:54.536Z,100751.14
2018-08-10T23:44:58.201Z,100751.87
2018-08-10T23:50:01.891Z,100737.98
2018-08-10T23:55:06.129Z,100733.19
